createdAt,value
2022-11-17T00:01:06.201Z,8.17
2022-11-17T00:03:53.524Z,8.07
2022-11-17T00:06:40.348Z,8.18
2022-11-17T00:09:29.583Z,8.13
2022-11-17T00:12:35.075Z,8.18
2022-11-17T00:15:22.080Z,8.07
2022-11-17T00:18:27.544Z,8.08
2022-11-17T00:21:21.681Z,8.07
2022-11-17T00:24:08.705Z,8.17
2022-11-17T00:27:01.703Z,8.10
2022-11-17T00:29:50.217Z,8.14
2022-11-17T00:32:55.544Z,8.10
2022-11-17T00:35:53.899Z,8.16
2022-11-17T00:38:42.342Z,8.09
2022-11-17T00:41:30.684Z,8.12
2022-11-17T00:44:17.934Z,8.13
2022-11-17T00:47:07.890Z,8.08
2022-11-17T00:49:59.158Z,8.14
2022-11-17T00:52:51.225Z,8.18
2022-11-17T00:55:38.627Z,8.12
2022-11-17T00:58:25.586Z,8.10
2022-11-17T01:01:12.703Z,8.12
2022-11-17T01:04:03.992Z,8.18
2022-11-17T01:06:51.582Z,8.17
2022-11-17T01:09:40.717Z,8.10
2022-11-17T01:12:28.646Z,8.09
2022-11-17T01:15:15.617Z,8.09
2022-11-17T01:18:02.571Z,8.09
2022-11-17T01:20:49.396Z,8.17
2022-11-17T01:23:37.841Z,8.10
2022-11-17T01:26:34.573Z,8.12
2022-11-17T01:29:21.551Z,8.10
2022-11-17T01:32:08.463Z,8.08
2022-11-17T01:34:55.472Z,8.08
2022-11-17T01:37:42.274Z,8.09
2022-11-17T01:40:29.237Z,8.10
2022-11-17T01:43:43.905Z,8.08
2022-11-17T01:46:37.431Z,8.10
2022-11-17T01:49:27.009Z,8.09
2022-11-17T01:52:14.703Z,8.07
2022-11-17T01:55:02.385Z,8.08
2022-11-17T01:57:57.140Z,8.12
2022-11-17T02:00:44.373Z,8.05
2022-11-17T02:03:33.177Z,8.08
2022-11-17T02:06:38.212Z,8.05
2022-11-17T02:09:25.643Z,8.03
2022-11-17T02:12:13.856Z,7.99
2022-11-17T02:15:01.696Z,8.02
2022-11-17T02:17:54.395Z,8.00
2022-11-17T02:21:03.113Z,8.03
2022-11-17T02:24:06.989Z,8.04
2022-11-17T02:27:12.606Z,8.02
2022-11-17T02:30:04.386Z,8.03
2022-11-17T02:33:00.503Z,8.05
2022-11-17T02:35:57.340Z,8.03
2022-11-17T02:38:50.387Z,8.01
2022-11-17T02:41:56.960Z,8.01
2022-11-17T02:44:57.920Z,8.05
2022-11-17T02:47:47.002Z,8.05
2022-11-17T02:50:35.069Z,8.02
2022-11-17T02:53:25.940Z,7.99
2022-11-17T02:56:12.755Z,8.03
2022-11-17T02:59:03.075Z,7.98
2022-11-17T03:01:50.047Z,8.04
2022-11-17T03:05:20.222Z,8.03
2022-11-17T03:08:17.380Z,8.03
2022-11-17T03:11:05.878Z,8.00
2022-11-17T03:14:07.331Z,7.96
2022-11-17T03:17:03.117Z,7.93
2022-11-17T03:19:58.651Z,7.95
2022-11-17T03:23:00.824Z,7.96
2022-11-17T03:25:51.451Z,8.01
2022-11-17T03:28:39.031Z,7.99
2022-11-17T03:31:27.681Z,8.00
2022-11-17T03:34:18.749Z,7.96
2022-11-17T03:37:07.246Z,7.96
2022-11-17T03:40:02.075Z,7.98
2022-11-17T03:42:54.098Z,7.93
2022-11-17T03:45:48.310Z,7.88
2022-11-17T03:48:51.504Z,7.94
2022-11-17T03:51:38.499Z,7.91
2022-11-17T03:54:25.502Z,7.92
2022-11-17T03:57:41.820Z,7.97
2022-11-17T04:00:30.657Z,7.88
2022-11-17T04:03:20.509Z,7.94
2022-11-17T04:06:07.694Z,7.93
2022-11-17T04:08:54.628Z,7.95
2022-11-17T04:11:59.828Z,7.95
2022-11-17T04:15:05.103Z,7.86
2022-11-17T04:17:54.907Z,7.88
2022-11-17T04:20:45.067Z,7.89
2022-11-17T04:23:35.203Z,7.93
2022-11-17T04:26:40.946Z,7.90
2022-11-17T04:29:28.547Z,7.87
2022-11-17T04:32:16.153Z,7.90
2022-11-17T04:35:02.961Z,7.90
2022-11-17T04:37:52.794Z,7.85
2022-11-17T04:40:59.721Z,7.84
2022-11-17T04:43:49.793Z,7.91
2022-11-17T04:46:37.867Z,7.85
2022-11-17T04:49:25.702Z,7.89
2022-11-17T04:52:12.542Z,7.85
2022-11-17T04:54:59.400Z,7.88
2022-11-17T04:57:46.201Z,7.87
2022-11-17T05:00:32.982Z,7.88
2022-11-17T05:03:19.866Z,7.84
2022-11-17T05:06:06.887Z,7.85
2022-11-17T05:08:58.521Z,7.87
2022-11-17T05:12:04.028Z,7.89
2022-11-17T05:14:53.394Z,7.85
2022-11-17T05:17:40.204Z,7.86
2022-11-17T05:20:27.102Z,7.84
2022-11-17T05:23:32.879Z,7.79
2022-11-17T05:26:22.065Z,7.85
2022-11-17T05:29:10.106Z,7.83
2022-11-17T05:31:56.962Z,7.79
2022-11-17T05:34:43.906Z,7.85
2022-11-17T05:37:30.844Z,7.86
2022-11-17T05:40:17.720Z,7.82
2022-11-17T05:43:04.526Z,7.84
2022-11-17T05:45:54.293Z,7.84
2022-11-17T05:48:41.096Z,7.83
2022-11-17T05:51:28.014Z,7.84
2022-11-17T05:54:14.790Z,7.79
2022-11-17T05:57:12.942Z,7.80
2022-11-17T06:00:04.384Z,7.82
2022-11-17T06:02:55.919Z,7.78
2022-11-17T06:05:43.195Z,7.79
2022-11-17T06:08:30.665Z,7.80
2022-11-17T06:11:19.005Z,7.75
2022-11-17T06:14:05.791Z,7.81
2022-11-17T06:16:57.369Z,7.77
2022-11-17T06:19:48.763Z,7.79
2022-11-17T06:22:36.106Z,7.80
2022-11-17T06:25:23.095Z,7.80
2022-11-17T06:28:12.107Z,7.78
2022-11-17T06:30:59.496Z,7.76
2022-11-17T06:33:47.223Z,7.80
2022-11-17T06:36:34.499Z,7.79
2022-11-17T06:39:21.263Z,7.76
2022-11-17T06:42:08.085Z,7.72
2022-11-17T06:44:54.847Z,7.75
2022-11-17T06:47:41.661Z,7.76
2022-11-17T06:50:28.671Z,7.77
2022-11-17T06:53:15.426Z,7.75
2022-11-17T06:56:04.856Z,7.78
2022-11-17T06:58:51.826Z,7.76
2022-11-17T07:01:38.684Z,7.76
2022-11-17T07:04:25.470Z,7.71
2022-11-17T07:07:13.525Z,7.74
2022-11-17T07:10:00.653Z,7.74
2022-11-17T07:12:47.544Z,7.74
2022-11-17T07:15:34.662Z,7.72
2022-11-17T07:18:21.828Z,7.74
2022-11-17T07:21:10.903Z,7.77
2022-11-17T07:23:57.810Z,7.77
2022-11-17T07:26:44.574Z,7.76
2022-11-17T07:29:31.338Z,7.78
2022-11-17T07:32:20.093Z,7.77
2022-11-17T07:35:07.289Z,7.78
2022-11-17T07:37:58.673Z,7.78
2022-11-17T07:40:48.770Z,7.77
2022-11-17T07:43:36.663Z,7.78
2022-11-17T07:46:23.475Z,7.73
2022-11-17T07:49:10.360Z,7.74
2022-11-17T07:51:57.267Z,7.74
2022-11-17T07:54:44.173Z,7.74
2022-11-17T07:57:31.174Z,7.74
2022-11-17T08:00:18.480Z,7.67
2022-11-17T08:03:05.885Z,7.74
2022-11-17T08:05:53.597Z,7.72
2022-11-17T08:08:40.586Z,7.75
2022-11-17T08:11:27.806Z,7.75
2022-11-17T08:14:14.548Z,7.75
2022-11-17T08:17:02.081Z,7.76
2022-11-17T08:19:48.873Z,7.76
2022-11-17T08:22:35.636Z,7.75
2022-11-17T08:25:24.291Z,7.74
2022-11-17T08:28:11.088Z,7.75
2022-11-17T08:31:00.841Z,7.76
2022-11-17T08:33:47.649Z,7.75
2022-11-17T08:36:34.515Z,7.77
2022-11-17T08:39:21.352Z,7.78
2022-11-17T08:42:08.156Z,7.79
2022-11-17T08:44:54.902Z,7.78
2022-11-17T08:47:41.726Z,7.76
2022-11-17T08:50:28.502Z,7.77
2022-11-17T08:53:19.298Z,7.79
2022-11-17T08:56:10.229Z,7.75
2022-11-17T08:58:57.643Z,7.77
2022-11-17T09:01:52.990Z,7.72
2022-11-17T09:04:40.108Z,7.73
2022-11-17T09:07:32.016Z,7.69
2022-11-17T09:10:21.653Z,7.77
2022-11-17T09:13:08.594Z,7.77
2022-11-17T09:15:57.543Z,7.78
2022-11-17T09:18:46.864Z,7.79
2022-11-17T09:21:34.043Z,7.83
2022-11-17T09:24:20.936Z,7.80
2022-11-17T09:27:08.572Z,7.80
2022-11-17T09:29:55.384Z,7.76
2022-11-17T09:32:42.171Z,7.81
2022-11-17T09:35:28.983Z,7.85
2022-11-17T09:38:15.769Z,7.77
2022-11-17T09:41:39.794Z,7.86
2022-11-17T09:44:32.612Z,7.87
2022-11-17T09:47:25.870Z,7.86
2022-11-17T09:50:23.146Z,7.82
2022-11-17T09:53:21.390Z,7.87
2022-11-17T09:56:09.392Z,7.82
2022-11-17T09:59:06.217Z,7.89
2022-11-17T10:01:57.062Z,7.86
2022-11-17T10:04:43.959Z,7.88
2022-11-17T10:07:32.061Z,7.92
2022-11-17T10:10:23.045Z,7.92
2022-11-17T10:13:29.943Z,7.85
2022-11-17T10:16:16.860Z,7.88
2022-11-17T10:19:21.319Z,7.86
2022-11-17T10:22:11.199Z,7.91
2022-11-17T10:25:01.608Z,7.86
2022-11-17T10:27:52.969Z,7.91
2022-11-17T10:30:53.610Z,7.92
2022-11-17T10:33:43.701Z,7.89
2022-11-17T10:36:31.417Z,7.91
2022-11-17T10:39:42.289Z,7.93
2022-11-17T10:42:29.115Z,7.89
2022-11-17T10:45:17.140Z,7.85
2022-11-17T10:48:28.491Z,7.93
2022-11-17T10:51:19.465Z,7.94
2022-11-17T10:54:24.206Z,7.94
2022-11-17T10:57:20.543Z,7.92
2022-11-17T11:00:31.570Z,7.95
2022-11-17T11:03:20.780Z,7.96
2022-11-17T11:06:21.789Z,7.96
2022-11-17T11:09:17.963Z,7.88
2022-11-17T11:12:05.743Z,7.92
2022-11-17T11:14:56.197Z,7.96
2022-11-17T11:17:43.129Z,7.92
2022-11-17T11:21:13.801Z,8.00
2022-11-17T11:24:24.010Z,7.98
2022-11-17T11:27:32.740Z,8.00
2022-11-17T11:30:23.021Z,7.99
2022-11-17T11:33:23.804Z,8.01
2022-11-17T11:36:25.917Z,8.00
2022-11-17T11:39:33.960Z,8.05
2022-11-17T11:42:42.693Z,8.06
2022-11-17T11:45:33.959Z,8.05
2022-11-17T11:48:28.890Z,8.03
2022-11-17T11:51:20.714Z,8.05
2022-11-17T11:54:20.717Z,8.09
2022-11-17T11:57:12.569Z,8.09
2022-11-17T12:00:33.107Z,8.04
2022-11-17T12:03:39.922Z,8.08
2022-11-17T12:06:42.337Z,8.05
2022-11-17T12:09:43.227Z,8.12
2022-11-17T12:12:38.233Z,8.11
2022-11-17T12:15:26.086Z,8.16
2022-11-17T12:18:23.397Z,8.10
2022-11-17T12:21:14.221Z,8.08
2022-11-17T12:24:16.459Z,8.12
2022-11-17T12:27:33.652Z,8.12
2022-11-17T12:30:32.711Z,8.20
2022-11-17T12:33:20.126Z,8.17
2022-11-17T12:37:11.758Z,8.25
2022-11-17T12:40:45.933Z,8.29
2022-11-17T12:43:34.233Z,8.30
2022-11-17T12:46:26.706Z,8.34
2022-11-17T12:49:33.767Z,8.31
2022-11-17T12:52:38.076Z,8.35
2022-11-17T12:55:38.654Z,8.37
2022-11-17T12:58:25.449Z,8.50
2022-11-17T13:01:15.633Z,8.53
2022-11-17T13:04:35.503Z,8.52
2022-11-17T13:07:25.639Z,8.59
2022-11-17T13:10:26.109Z,8.62
2022-11-17T13:13:22.566Z,8.62
2022-11-17T13:16:16.791Z,8.70
2022-11-17T13:19:07.142Z,8.72
2022-11-17T13:22:04.564Z,8.77
2022-11-17T13:24:54.694Z,8.79
2022-11-17T13:27:47.945Z,8.83
2022-11-17T13:30:42.281Z,8.87
2022-11-17T13:33:40.311Z,8.80
2022-11-17T13:36:29.352Z,8.88
2022-11-17T13:39:19.667Z,8.97
2022-11-17T13:42:19.707Z,8.89
2022-11-17T13:45:08.999Z,8.88
2022-11-17T13:47:56.530Z,8.98
2022-11-17T13:50:43.447Z,8.92
2022-11-17T13:53:35.247Z,8.98
2022-11-17T13:56:22.074Z,8.99
2022-11-17T13:59:26.418Z,8.99
2022-11-17T14:02:16.218Z,9.02
2022-11-17T14:05:15.276Z,9.02
2022-11-17T14:08:21.571Z,9.01
2022-11-17T14:11:33.980Z,9.01
2022-11-17T14:14:47.132Z,9.03
2022-11-17T14:17:43.623Z,8.95
2022-11-17T14:20:41.711Z,9.01
2022-11-17T14:23:42.938Z,9.02
2022-11-17T14:26:38.967Z,9.04
2022-11-17T14:29:45.256Z,9.02
2022-11-17T14:32:34.826Z,9.04
2022-11-17T14:35:29.709Z,9.00
2022-11-17T14:38:21.857Z,9.03
2022-11-17T14:41:14.343Z,9.06
2022-11-17T14:44:06.938Z,9.02
2022-11-17T14:47:21.400Z,9.00
2022-11-17T14:50:19.571Z,9.02
2022-11-17T14:53:13.092Z,9.03
2022-11-17T14:56:13.995Z,9.07
2022-11-17T14:59:05.554Z,9.07
2022-11-17T15:05:18.307Z,9.07
2022-11-17T15:08:05.834Z,9.07
2022-11-17T15:11:01.008Z,9.09
2022-11-17T15:14:01.950Z,9.05
2022-11-17T15:17:17.638Z,9.16
2022-11-17T15:20:17.732Z,9.15
2022-11-17T15:23:23.697Z,9.05
2022-11-17T15:26:41.717Z,9.10
2022-11-17T15:29:28.855Z,9.08
2022-11-17T15:32:19.873Z,9.04
2022-11-17T15:35:07.226Z,9.10
2022-11-17T15:37:54.152Z,9.07
2022-11-17T15:40:40.896Z,9.19
2022-11-17T15:43:33.311Z,9.21
2022-11-17T15:51:03.565Z,9.11
2022-11-17T15:58:18.822Z,9.14
2022-11-17T16:16:06.947Z,9.24
2022-11-17T16:19:29.409Z,9.24
2022-11-17T16:28:40.951Z,9.23
2022-11-17T16:31:44.755Z,9.26
2022-11-17T16:35:02.823Z,9.26
2022-11-17T16:41:21.875Z,9.28
2022-11-17T16:44:45.329Z,9.21
2022-11-17T16:48:20.072Z,9.24
2022-11-17T16:55:25.110Z,9.24
2022-11-17T16:58:38.672Z,9.24
2022-11-17T17:08:54.734Z,9.26
2022-11-17T17:12:14.404Z,9.34
2022-11-17T17:15:45.302Z,9.25
2022-11-17T17:18:50.049Z,9.28
2022-11-17T17:23:22.003Z,9.26
2022-11-17T17:25:18.374Z,9.26
2022-11-17T17:28:39.919Z,9.23
2022-11-17T17:55:51.738Z,9.16
2022-11-17T19:37:18.515Z,9.12
2022-11-17T19:40:48.360Z,9.13
2022-11-17T19:42:28.226Z,9.04
2022-11-17T19:45:21.074Z,9.08
2022-11-17T19:48:34.744Z,9.10
2022-11-17T19:52:29.284Z,9.13
2022-11-17T19:58:41.410Z,9.09
2022-11-17T20:01:43.559Z,9.09
2022-11-17T20:04:39.247Z,9.09
2022-11-17T20:07:29.910Z,9.09
2022-11-17T20:10:20.912Z,9.14
2022-11-17T20:13:27.614Z,9.10
2022-11-17T20:16:25.660Z,9.18
2022-11-17T20:22:45.191Z,9.09
2022-11-17T20:25:32.499Z,9.16
2022-11-17T20:28:22.376Z,9.18
2022-11-17T20:31:15.839Z,9.14
2022-11-17T20:34:06.464Z,9.06
2022-11-17T20:36:56.337Z,9.09
2022-11-17T20:39:48.456Z,9.11
2022-11-17T20:42:38.485Z,9.09
2022-11-17T20:45:29.905Z,9.09
2022-11-17T20:48:17.339Z,9.07
2022-11-17T20:51:06.757Z,9.15
2022-11-17T20:53:53.791Z,9.06
2022-11-17T20:56:48.476Z,9.12
2022-11-17T20:59:46.071Z,9.12
2022-11-17T21:02:33.135Z,9.06
2022-11-17T21:05:21.387Z,9.06
2022-11-17T21:08:08.330Z,9.06
2022-11-17T21:10:59.311Z,9.06
2022-11-17T21:13:46.331Z,9.02
2022-11-17T21:16:34.036Z,9.10
2022-11-17T21:19:21.024Z,9.02
2022-11-17T21:22:07.932Z,9.06
2022-11-17T21:24:54.738Z,9.00
2022-11-17T21:27:41.538Z,9.00
2022-11-17T21:30:28.421Z,9.04
2022-11-17T21:33:15.341Z,9.04
2022-11-17T21:36:07.771Z,8.96
2022-11-17T21:38:55.677Z,8.94
2022-11-17T21:41:42.431Z,8.90
2022-11-17T21:44:29.200Z,8.93
2022-11-17T21:47:16.107Z,8.96
2022-11-17T21:50:10.688Z,9.00
2022-11-17T21:52:57.510Z,8.93
2022-11-17T21:55:44.299Z,8.98
2022-11-17T21:58:34.412Z,8.93
2022-11-17T22:01:21.652Z,8.95
2022-11-17T22:04:08.912Z,9.00
2022-11-17T22:06:55.902Z,8.95
2022-11-17T22:09:42.767Z,8.93
2022-11-17T22:12:29.798Z,8.95
2022-11-17T22:15:18.632Z,8.97
2022-11-17T22:18:07.841Z,8.94
2022-11-17T22:20:54.611Z,8.99
2022-11-17T22:23:41.643Z,8.95
2022-11-17T22:26:28.665Z,8.94
2022-11-17T22:29:22.213Z,8.91
2022-11-17T22:32:09.240Z,8.89
2022-11-17T22:34:56.210Z,8.88
2022-11-17T22:37:43.003Z,8.94
2022-11-17T22:40:33.623Z,8.88
2022-11-17T22:43:23.143Z,8.90
2022-11-17T22:46:11.282Z,8.96
2022-11-17T22:49:06.184Z,8.92
2022-11-17T22:52:05.855Z,8.95
2022-11-17T22:54:52.745Z,8.88
2022-11-17T22:57:39.627Z,8.88
2022-11-17T23:00:26.693Z,8.86
2022-11-17T23:03:15.609Z,8.89
2022-11-17T23:06:03.818Z,8.87
2022-11-17T23:08:50.985Z,8.86
2022-11-17T23:11:39.341Z,8.89
2022-11-17T23:14:26.299Z,8.86
2022-11-17T23:17:13.121Z,8.82
2022-11-17T23:19:59.906Z,8.84
2022-11-17T23:22:47.045Z,8.89
2022-11-17T23:25:38.944Z,8.88
2022-11-17T23:28:25.798Z,8.84
2022-11-17T23:31:14.530Z,8.86
2022-11-17T23:34:01.327Z,8.89
2022-11-17T23:36:48.224Z,8.85
2022-11-17T23:39:37.063Z,8.86
2022-11-17T23:42:25.651Z,8.80
2022-11-17T23:45:15.471Z,8.88
2022-11-17T23:48:02.291Z,8.82
2022-11-17T23:50:49.920Z,8.83
2022-11-17T23:53:37.120Z,8.87
2022-11-17T23:56:27.308Z,8.87
2022-11-17T23:59:14.292Z,8.86
